Time;durP1;ratioP1;P1;durP2;ratioP2;P2;SDS_P1;SDS_P2;PMS_P1;PMS_P2;Temp;Humidity;BMP_temperature;BMP_pressure;BME280_temperature;BME280_humidity;BME280_pressure;Samples;Min_cycle;Max_cycle;Signal;HPM_P1;HPM_P2
2023/06/23 00:00:00;;;;;;;15.10;13.60;;;;;;;20.32;80.13;96593.48;109279;1247;25291;-85
2023/06/23 00:02:33;;;;;;;16.60;14.80;;;;;;;20.37;80.65;96595.05;109279;1271;25528;-84
2023/06/23 00:05:05;;;;;;;15.00;13.50;;;;;;;20.42;80.75;96594.33;109299;1249;22517;-85
2023/06/23 00:07:36;;;;;;;15.70;14.10;;;;;;;20.44;80.84;96596.55;109276;1269;23893;-84
2023/06/23 00:10:10;;;;;;;14.90;13.50;;;;;;;20.46;80.99;96594.36;109305;1270;22658;-84
2023/06/23 00:12:43;;;;;;;16.00;14.50;;;;;;;20.42;81.02;96593.79;109278;1264;23780;-85
2023/06/23 00:15:16;;;;;;;15.60;14.00;;;;;;;20.39;81.17;96594.11;109303;1269;22560;-85
2023/06/23 00:17:50;;;;;;;15.60;14.00;;;;;;;20.39;81.31;96593.13;109257;1271;31462;-85
2023/06/23 00:20:22;;;;;;;15.00;13.60;;;;;;;20.39;81.45;96592.19;109280;1260;22520;-84
2023/06/23 00:22:53;;;;;;;15.10;13.50;;;;;;;20.39;81.57;96591.13;109276;1271;22518;-85
2023/06/23 00:25:24;;;;;;;15.60;14.10;;;;;;;20.42;81.77;96591.17;109275;1271;22523;-85
2023/06/23 00:27:55;;;;;;;15.40;13.90;;;;;;;20.47;81.65;96581.52;109310;1271;22507;-85
2023/06/23 00:30:26;;;;;;;15.40;14.00;;;;;;;20.51;81.55;96573.09;109320;1271;24225;-85
2023/06/23 00:32:57;;;;;;;15.30;13.80;;;;;;;20.51;81.47;96568.17;109300;1263;22762;-84
2023/06/23 00:35:29;;;;;;;14.80;13.30;;;;;;;20.52;81.37;96564.13;109271;1271;22511;-84
2023/06/23 00:38:00;;;;;;;14.70;13.30;;;;;;;20.52;81.23;96561.56;109278;1266;22616;-85
2023/06/23 00:40:31;;;;;;;14.80;13.40;;;;;;;20.44;80.92;96557.23;109302;1271;22507;-85
2023/06/23 00:43:03;;;;;;;15.10;13.60;;;;;;;20.41;81.14;96558.45;109288;1265;22514;-85
2023/06/23 00:45:34;;;;;;;15.80;14.30;;;;;;;20.44;81.22;96552.08;109269;1269;25251;-84
2023/06/23 00:48:08;;;;;;;16.00;14.40;;;;;;;20.43;81.33;96550.97;109296;1268;22510;-85
2023/06/23 00:50:39;;;;;;;16.10;14.30;;;;;;;20.35;81.45;96551.84;109296;1266;22509;-85
2023/06/23 00:53:11;;;;;;;17.40;15.60;;;;;;;20.30;81.87;96552.64;109292;1271;22523;-85
2023/06/23 00:55:44;;;;;;;17.50;15.70;;;;;;;20.30;82.42;96553.94;109292;1271;22778;-86
2023/06/23 00:58:16;;;;;;;16.10;14.60;;;;;;;20.31;82.68;96552.05;109198;1271;85595;-85
2023/06/23 01:00:47;;;;;;;16.60;15.00;;;;;;;20.33;82.89;96547.95;109285;1266;25303;-85
2023/06/23 01:03:18;;;;;;;16.70;15.10;;;;;;;20.35;82.97;96547.63;109289;1271;22648;-85
2023/06/23 01:05:53;;;;;;;15.70;14.30;;;;;;;20.36;82.99;96548.04;109285;1263;22639;-85
2023/06/23 01:08:33;;;;;;;17.30;15.60;;;;;;;20.34;83.01;96545.06;109279;1271;22533;-85
2023/06/23 01:11:11;;;;;;;17.10;15.30;;;;;;;20.33;83.21;96542.86;109274;1265;22928;-85
2023/06/23 01:13:49;;;;;;;16.70;15.20;;;;;;;20.34;83.27;96538.98;109322;1271;23742;-86
2023/06/23 01:16:26;;;;;;;17.60;15.90;;;;;;;20.37;83.41;96537.52;109297;1263;22564;-85
2023/06/23 01:19:09;;;;;;;17.90;15.20;;;;;;;20.39;83.46;96538.65;109310;1271;22522;-85
2023/06/23 01:22:03;;;;;;;16.20;14.50;;;;;;;20.39;83.23;96533.80;109242;1271;22543;-85
2023/06/23 01:24:51;;;;;;;16.70;15.10;;;;;;;20.28;83.02;96524.05;109227;1271;22555;-85
2023/06/23 01:27:49;;;;;;;17.50;15.60;;;;;;;20.18;83.33;96514.31;109298;1271;22505;-85
2023/06/23 01:30:25;;;;;;;19.40;17.00;;;;;;;20.14;83.67;96512.73;109288;1269;22724;-84
2023/06/23 01:33:03;;;;;;;17.60;16.00;;;;;;;20.13;84.19;96518.73;109296;1263;22535;-85
2023/06/23 01:35:42;;;;;;;18.40;16.60;;;;;;;20.15;84.28;96518.61;109299;1271;22514;-85
2023/06/23 01:38:18;;;;;;;18.80;17.00;;;;;;;20.14;84.44;96512.45;109259;1247;82705;-84
2023/06/23 01:40:55;;;;;;;18.40;16.60;;;;;;;20.16;84.70;96508.80;109280;1271;22575;-85
2023/06/23 01:43:30;;;;;;;17.80;16.10;;;;;;;20.20;84.77;96510.28;109375;1266;25435;-85
2023/06/23 01:46:05;;;;;;;18.30;16.40;;;;;;;20.24;84.77;96510.76;109332;1271;24231;-85
2023/06/23 01:48:41;;;;;;;17.80;15.90;;;;;;;20.25;84.65;96512.95;109285;1264;53567;-84
2023/06/23 01:51:14;;;;;;;18.10;16.30;;;;;;;20.28;84.94;96513.66;109310;1263;23836;-85
2023/06/23 01:53:48;;;;;;;17.20;15.50;;;;;;;20.33;84.84;96515.42;109267;1266;23224;-85
2023/06/23 01:56:25;;;;;;;17.20;15.70;;;;;;;20.36;84.77;96518.65;109291;1266;22509;-84
2023/06/23 01:59:02;;;;;;;17.30;15.70;;;;;;;20.38;84.70;96510.93;109327;1268;22627;-85
2023/06/23 02:01:35;;;;;;;16.90;15.30;;;;;;;20.37;84.10;96513.51;109321;1266;22546;-84
2023/06/23 02:04:07;;;;;;;17.10;15.40;;;;;;;20.33;84.09;96517.66;109330;1266;22555;-84
2023/06/23 02:06:41;;;;;;;18.70;16.80;;;;;;;20.27;84.10;96517.80;109335;1268;22507;-84
2023/06/23 02:09:16;;;;;;;18.20;16.50;;;;;;;20.22;84.17;96511.71;109269;1271;23130;-84
2023/06/23 02:11:48;;;;;;;18.80;16.80;;;;;;;20.17;84.24;96505.83;109298;1271;25281;-84
2023/06/23 02:14:21;;;;;;;18.00;16.20;;;;;;;20.08;84.27;96506.42;109323;1271;25470;-84
2023/06/23 02:16:54;;;;;;;18.00;16.10;;;;;;;20.04;84.73;96503.02;109317;1263;24200;-85
2023/06/23 02:19:28;;;;;;;18.10;16.40;;;;;;;20.04;85.01;96498.85;109319;1262;42836;-85
2023/06/23 02:22:00;;;;;;;18.60;16.80;;;;;;;20.06;85.26;96488.29;109280;1263;23429;-85
2023/06/23 02:24:32;;;;;;;18.00;16.30;;;;;;;20.04;85.46;96483.79;109319;1271;25415;-84
2023/06/23 02:27:04;;;;;;;19.50;17.20;;;;;;;20.06;85.70;96479.60;109320;1263;22604;-84
2023/06/23 02:29:39;;;;;;;18.50;16.50;;;;;;;20.08;85.65;96473.36;109282;1269;83651;-84
2023/06/23 02:32:16;;;;;;;19.80;17.60;;;;;;;20.02;85.64;96462.90;109330;1271;22589;-85
2023/06/23 02:34:48;;;;;;;19.10;17.20;;;;;;;19.99;86.09;96458.50;109307;1267;22793;-85
2023/06/23 02:37:24;;;;;;;19.00;17.00;;;;;;;20.00;86.33;96457.77;109283;1271;40042;-85
2023/06/23 02:39:59;;;;;;;19.50;17.40;;;;;;;20.04;86.61;96448.96;109325;1271;22546;-84
2023/06/23 02:42:37;;;;;;;19.90;18.00;;;;;;;20.08;86.43;96451.11;109324;1271;22514;-85
2023/06/23 02:45:15;;;;;;;19.50;17.70;;;;;;;20.09;86.61;96452.30;109320;1271;24195;-84
2023/06/23 02:47:48;;;;;;;18.90;17.10;;;;;;;20.12;86.89;96453.55;109234;1271;51002;-85
2023/06/23 02:50:25;;;;;;;19.90;17.90;;;;;;;20.16;86.98;96458.81;109319;1268;24014;-85
2023/06/23 02:53:05;;;;;;;19.20;17.40;;;;;;;20.18;86.92;96463.77;109298;1264;25316;-84
2023/06/23 02:55:39;;;;;;;19.70;17.70;;;;;;;20.18;86.94;96464.38;109325;1271;22543;-84
2023/06/23 02:58:13;;;;;;;19.30;17.40;;;;;;;20.18;87.01;96464.40;109294;1264;26507;-85
2023/06/23 03:00:45;;;;;;;19.00;17.20;;;;;;;20.21;87.11;96462.45;109337;1266;24158;-85
2023/06/23 03:03:17;;;;;;;18.40;16.40;;;;;;;20.25;87.15;96451.34;109314;1263;22507;-85
2023/06/23 03:05:48;;;;;;;19.70;17.90;;;;;;;20.27;86.90;96447.55;109351;1271;22504;-85
2023/06/23 03:08:19;;;;;;;18.70;16.90;;;;;;;20.25;86.76;96446.34;109291;1264;32775;-84
2023/06/23 03:10:51;;;;;;;18.40;16.50;;;;;;;20.24;86.97;96454.01;109321;1266;22831;-84
2023/06/23 03:13:22;;;;;;;19.70;17.70;;;;;;;20.25;87.05;96455.56;109330;1264;22546;-85
2023/06/23 03:15:59;;;;;;;18.80;16.60;;;;;;;20.27;87.11;96450.34;109297;1271;22640;-85
2023/06/23 03:18:35;;;;;;;18.40;16.70;;;;;;;20.30;87.35;96455.58;109281;1268;30231;-85
2023/06/23 03:21:10;;;;;;;19.50;17.70;;;;;;;20.32;87.25;96457.91;109091;1271;24189;-85
2023/06/23 03:23:42;;;;;;;19.00;17.00;;;;;;;20.33;87.23;96461.95;109318;1268;22524;-85
2023/06/23 03:26:14;;;;;;;19.60;17.60;;;;;;;20.37;87.53;96465.98;109333;1263;22649;-85
2023/06/23 03:28:48;;;;;;;18.40;16.70;;;;;;;20.44;87.50;96467.74;109255;1271;23157;-84
2023/06/23 03:31:22;;;;;;;18.60;16.70;;;;;;;20.46;87.33;96467.79;109318;1271;23903;-85
2023/06/23 03:33:58;;;;;;;20.00;17.90;;;;;;;20.48;87.16;96467.46;109310;1271;22517;-85
2023/06/23 03:36:30;;;;;;;19.20;17.40;;;;;;;20.51;87.20;96473.91;109319;1271;22508;-84
2023/06/23 03:39:09;;;;;;;19.00;17.30;;;;;;;20.57;87.49;96485.02;109273;1271;22643;-85
2023/06/23 03:41:44;;;;;;;19.40;17.30;;;;;;;20.64;87.43;96493.63;109277;1271;22521;-84
2023/06/23 03:44:23;;;;;;;19.40;16.80;;;;;;;20.66;87.49;96495.70;109306;1266;22542;-84
2023/06/23 03:46:58;;;;;;;19.80;17.80;;;;;;;20.74;87.34;96499.30;109295;1266;22828;-84
2023/06/23 03:49:35;;;;;;;19.40;17.50;;;;;;;20.79;87.30;96493.25;109282;1271;26656;-84
2023/06/23 03:52:10;;;;;;;19.80;17.70;;;;;;;20.84;87.34;96501.69;109277;1271;22512;-84
2023/06/23 03:54:44;;;;;;;19.70;17.70;;;;;;;20.89;87.40;96506.91;109303;1266;22511;-84
2023/06/23 03:57:29;;;;;;;18.20;16.50;;;;;;;20.94;87.51;96512.34;109297;1269;28054;-84
2023/06/23 04:00:03;;;;;;;19.20;17.30;;;;;;;21.01;87.64;96511.99;109308;1266;22530;-84
2023/06/23 04:02:38;;;;;;;18.10;16.40;;;;;;;21.07;87.35;96513.88;109323;1271;25223;-84
2023/06/23 04:05:15;;;;;;;17.70;16.00;;;;;;;21.10;87.34;96517.27;109297;1271;22524;-84
2023/06/23 04:07:49;;;;;;;17.90;16.00;;;;;;;21.15;87.29;96523.25;109287;1271;32032;-84
2023/06/23 04:10:23;;;;;;;17.40;15.60;;;;;;;21.19;87.26;96513.64;109330;1249;22820;-84
2023/06/23 04:12:57;;;;;;;18.70;16.80;;;;;;;21.22;86.99;96506.55;109315;1271;22525;-85
2023/06/23 04:15:30;;;;;;;18.40;16.50;;;;;;;21.28;86.90;96506.65;109304;1269;22620;-85
2023/06/23 04:18:07;;;;;;;18.00;16.20;;;;;;;21.33;86.63;96507.92;109293;1271;45041;-85
2023/06/23 04:20:41;;;;;;;18.70;16.80;;;;;;;21.36;86.46;96503.20;109319;1261;26761;-84
2023/06/23 04:23:14;;;;;;;18.20;16.40;;;;;;;21.40;86.37;96500.16;109312;1271;22504;-84
2023/06/23 04:25:48;;;;;;;18.70;17.10;;;;;;;21.45;86.27;96498.02;109305;1271;23879;-84
2023/06/23 04:28:23;;;;;;;18.30;16.50;;;;;;;21.50;86.12;96493.13;109272;1271;22512;-85
2023/06/23 04:30:59;;;;;;;18.70;16.80;;;;;;;21.54;86.12;96492.92;109307;1269;22515;-85
2023/06/23 04:33:32;;;;;;;18.40;16.50;;;;;;;21.61;86.26;96496.45;109304;1266;22499;-85
2023/06/23 04:36:13;;;;;;;17.50;15.80;;;;;;;21.69;86.18;96497.17;109285;1269;23851;-86
2023/06/23 04:38:51;;;;;;;19.50;17.60;;;;;;;21.75;85.89;96491.89;109217;1271;22541;-85
2023/06/23 04:41:32;;;;;;;19.60;17.70;;;;;;;21.79;85.69;96486.80;109385;1269;24186;-84
2023/06/23 04:44:10;;;;;;;18.60;16.80;;;;;;;21.86;85.76;96485.27;109369;1269;24193;-85
2023/06/23 04:46:46;;;;;;;18.10;16.30;;;;;;;21.93;85.69;96484.19;109243;1269;22576;-84
2023/06/23 04:49:22;;;;;;;17.90;16.10;;;;;;;22.04;85.73;96485.19;109336;1266;25557;-84
2023/06/23 04:51:57;;;;;;;18.40;16.70;;;;;;;22.16;85.92;96487.45;109301;1267;22553;-85
2023/06/23 04:54:40;;;;;;;18.80;16.90;;;;;;;22.31;86.08;96498.46;109302;1266;22565;-84
2023/06/23 04:57:17;;;;;;;17.90;16.10;;;;;;;22.41;85.77;96506.77;109279;1271;48576;-85
2023/06/23 04:59:56;;;;;;;18.30;16.40;;;;;;;22.53;85.79;96507.21;109333;1269;22567;-84
2023/06/23 05:02:33;;;;;;;18.70;16.90;;;;;;;22.67;85.70;96504.70;109374;1267;22507;-82
2023/06/23 05:05:09;;;;;;;18.50;16.60;;;;;;;22.77;85.44;96492.36;109296;1268;25469;-83
2023/06/23 05:07:42;;;;;;;17.20;15.40;;;;;;;22.90;85.44;96487.05;109242;1264;60133;-83
2023/06/23 05:10:15;;;;;;;17.10;15.50;;;;;;;23.03;84.96;96487.42;109296;1266;25398;-83
2023/06/23 05:12:47;;;;;;;18.30;16.70;;;;;;;23.17;84.98;96489.27;109134;1271;22527;-83
2023/06/23 05:15:20;;;;;;;16.60;15.00;;;;;;;23.34;85.20;96483.51;109303;1271;22537;-83
2023/06/23 05:17:57;;;;;;;17.10;15.40;;;;;;;23.53;85.01;96476.52;109263;1264;74957;-82
2023/06/23 05:20:31;;;;;;;16.90;15.30;;;;;;;23.69;84.10;96488.52;109263;1269;22509;-82
2023/06/23 05:23:05;;;;;;;16.00;14.30;;;;;;;23.84;83.70;96493.52;109277;1269;22521;-82
2023/06/23 05:25:38;;;;;;;15.50;14.10;;;;;;;24.04;83.48;96497.33;109331;1271;22793;-83
2023/06/23 05:28:12;;;;;;;16.60;14.90;;;;;;;24.29;83.05;96490.20;109277;1269;48580;-83
2023/06/23 05:30:45;;;;;;;16.00;14.40;;;;;;;24.53;82.86;96484.77;109288;1268;22514;-83
2023/06/23 05:33:20;;;;;;;14.90;13.40;;;;;;;24.90;82.71;96485.34;109276;1269;22668;-83
2023/06/23 05:35:54;;;;;;;15.00;13.50;;;;;;;25.42;82.46;96487.95;109314;1266;22519;-83
2023/06/23 05:38:27;;;;;;;17.10;13.90;;;;;;;25.97;80.81;96500.02;109295;1249;45469;-83
2023/06/23 05:40:59;;;;;;;14.90;13.40;;;;;;;26.46;79.51;96505.83;109267;1263;22518;-83
2023/06/23 05:43:34;;;;;;;15.40;13.30;;;;;;;26.98;78.54;96493.27;109302;1269;22551;-85
2023/06/23 05:46:13;;;;;;;13.70;12.30;;;;;;;27.44;76.41;96489.85;109492;1269;24244;-84
2023/06/23 05:48:50;;;;;;;13.40;12.00;;;;;;;27.86;75.12;96485.13;109353;1264;40689;-85
2023/06/23 05:51:25;;;;;;;15.00;12.40;;;;;;;28.32;73.35;96488.48;109318;1271;25312;-85
2023/06/23 05:54:01;;;;;;;14.70;12.00;;;;;;;28.65;71.95;96481.60;109352;1267;22625;-83
2023/06/23 05:56:37;;;;;;;13.20;11.90;;;;;;;28.65;69.97;96476.38;109312;1268;25453;-83
2023/06/23 05:59:14;;;;;;;14.30;12.90;;;;;;;28.44;69.08;96473.01;109254;1271;64840;-83
2023/06/23 06:01:52;;;;;;;13.30;12.00;;;;;;;28.37;68.86;96474.76;109282;1268;22511;-84
2023/06/23 06:04:30;;;;;;;14.00;12.50;;;;;;;28.61;68.86;96477.35;109326;1266;22508;-84
2023/06/23 06:07:05;;;;;;;15.10;12.60;;;;;;;28.99;68.36;96468.67;109319;1263;23783;-85
2023/06/23 06:09:38;;;;;;;13.80;12.30;;;;;;;29.19;66.64;96462.60;109254;1263;75384;-84
2023/06/23 06:15:53;;;;;;;;;;;;;;;29.42;65.36;96447.95;108944;1272;22500;-85
2023/06/23 06:18:48;;;;;;;14.30;12.70;;;;;;;29.61;64.55;96445.52;109014;1272;77374;-84
2023/06/23 06:21:39;;;;;;;;;;;;;;;;;;;;;
2023/06/23 06:24:18;;;;;;;12.30;11.00;;;;;;;30.02;63.22;96447.80;109174;1266;22536;-87
2023/06/23 06:30:22;;;;;;;12.20;10.60;;;;;;;29.96;61.07;96448.80;109133;1267;23267;-89
2023/06/23 06:33:03;;;;;;;14.50;11.00;;;;;;;30.17;60.90;96447.80;109209;1251;22588;-87
2023/06/23 06:35:51;;;;;;;12.70;11.50;;;;;;;30.05;59.58;96448.16;109135;1272;23838;-87
2023/06/23 06:38:46;;;;;;;;;;;;;;;;;;;;;
2023/06/23 06:41:29;;;;;;;13.70;12.30;;;;;;;28.61;60.28;96463.48;109184;1266;22523;-84
2023/06/23 06:44:31;;;;;;;13.60;12.10;;;;;;;28.04;61.08;96470.52;109168;1266;25975;-88
2023/06/23 06:47:19;;;;;;;14.50;11.80;;;;;;;27.66;62.23;96466.89;109192;1266;22554;-90
2023/06/23 06:50:03;;;;;;;13.80;11.30;;;;;;;27.48;62.60;96459.98;109117;1272;22691;-88
2023/06/23 06:52:45;;;;;;;12.30;11.00;;;;;;;27.57;63.02;96462.61;109102;1267;23737;-89
2023/06/23 06:55:22;;;;;;;13.30;10.50;;;;;;;27.66;62.71;96456.77;109222;1258;22570;-90
2023/06/23 06:58:08;;;;;;;11.50;10.30;;;;;;;27.80;62.61;96448.88;107837;1268;1819294;-89
2023/06/23 07:00:39;;;;;;;16.70;10.70;;;;;;;28.00;62.77;96457.38;109170;1254;22528;-83
2023/06/23 07:03:19;;;;;;;14.50;10.90;;;;;;;27.96;62.05;96466.51;109312;1274;22551;-89
2023/06/23 07:05:53;;;;;;;12.30;10.50;;;;;;;27.58;61.35;96473.20;109321;1273;22647;-83
2023/06/23 07:08:26;;;;;;;12.10;10.10;;;;;;;27.18;61.75;96482.34;109095;1268;38015;-87
2023/06/23 07:10:58;;;;;;;12.70;10.30;;;;;;;26.82;61.75;96487.57;109323;1270;22556;-86
2023/06/23 07:13:29;;;;;;;13.70;12.10;;;;;;;26.43;61.93;96492.38;109099;1271;22494;-85
2023/06/23 07:16:14;;;;;;;13.40;11.90;;;;;;;26.07;62.59;96498.67;109023;1272;22583;-88
2023/06/23 07:18:45;;;;;;;14.40;12.20;;;;;;;25.67;63.44;96507.84;109042;1271;62904;-86
2023/06/23 07:21:25;;;;;;;16.40;12.70;;;;;;;25.36;63.89;96524.82;109145;1269;22617;-91
2023/06/23 07:27:44;;;;;;;14.60;12.40;;;;;;;24.83;65.60;96536.34;108786;1268;82885;-84
2023/06/23 07:30:16;;;;;;;15.50;12.80;;;;;;;24.66;66.07;96541.73;109056;1268;22652;-89
2023/06/23 07:32:50;;;;;;;14.10;12.70;;;;;;;24.51;66.68;96543.05;109109;1252;22514;-87
2023/06/23 07:35:24;;;;;;;14.50;12.90;;;;;;;24.48;67.32;96528.45;109066;1268;22574;-84
2023/06/23 07:38:13;;;;;;;15.00;12.30;;;;;;;24.43;67.74;96516.87;108969;1266;142254;-87
2023/06/23 07:41:20;;;;;;;15.80;13.20;;;;;;;24.35;68.20;96515.39;109024;1270;22589;-85
2023/06/23 07:44:25;;;;;;;16.00;12.80;;;;;;;24.32;68.83;96531.74;109022;1270;22821;-85
2023/06/23 07:47:00;;;;;;;13.90;11.80;;;;;;;24.33;69.28;96546.55;109124;1268;26431;-86
2023/06/23 07:49:47;;;;;;;14.50;12.40;;;;;;;24.37;69.61;96551.95;109059;1270;112199;-84
2023/06/23 07:52:57;;;;;;;14.50;12.90;;;;;;;24.40;70.06;96552.99;109089;1268;22525;-86
2023/06/23 07:55:37;;;;;;;17.20;12.50;;;;;;;24.39;70.25;96547.95;109052;1266;26694;-84
2023/06/23 07:58:13;;;;;;;14.70;11.30;;;;;;;24.33;70.03;96547.71;109000;1270;81825;-84
2023/06/23 08:00:55;;;;;;;15.40;11.20;;;;;;;24.26;70.24;96549.84;109031;1272;22537;-84
2023/06/23 08:03:30;;;;;;;15.30;11.20;;;;;;;24.21;70.27;96546.92;109036;1272;22507;-85
2023/06/23 08:06:28;;;;;;;14.40;11.40;;;;;;;24.16;70.39;96550.95;109023;1270;22511;-85
2023/06/23 08:09:10;;;;;;;14.60;10.30;;;;;;;24.09;70.80;96554.44;108984;1266;67962;-84
2023/06/23 08:12:10;;;;;;;;;;;;;;;;;;;;;
2023/06/23 08:14:53;;;;;;;13.20;10.90;;;;;;;24.01;71.18;96565.30;108842;1270;22521;-86
2023/06/23 08:17:27;;;;;;;14.60;11.60;;;;;;;24.00;71.44;96568.16;108970;1275;24284;-85
2023/06/23 08:20:10;;;;;;;20.70;11.30;;;;;;;23.98;71.63;96563.34;109057;1267;22515;-85
2023/06/23 08:22:53;;;;;;;16.30;12.00;;;;;;;23.98;71.82;96559.31;109099;1272;22507;-86
2023/06/23 08:25:26;;;;;;;15.80;11.30;;;;;;;23.99;71.95;96551.98;109124;1273;25358;-86
2023/06/23 08:28:05;;;;;;;14.60;11.30;;;;;;;24.02;72.17;96545.19;106009;1269;4091207;-85
2023/06/23 08:30:43;;;;;;;14.10;11.60;;;;;;;24.02;72.12;96537.70;109092;1272;22579;-86
2023/06/23 08:33:23;;;;;;;15.70;11.40;;;;;;;24.02;72.01;96544.11;109108;1250;22497;-86
2023/06/23 08:36:01;;;;;;;15.50;11.40;;;;;;;24.03;72.33;96549.38;109110;1269;22505;-85
2023/06/23 08:38:38;;;;;;;18.80;11.80;;;;;;;24.04;72.39;96553.51;107550;1273;2072674;-84
2023/06/23 08:41:23;;;;;;;19.40;12.80;;;;;;;24.03;72.44;96556.73;109124;1269;24219;-85
2023/06/23 08:44:13;;;;;;;15.30;12.60;;;;;;;24.03;72.69;96555.42;109127;1272;22589;-86
2023/06/23 08:47:06;;;;;;;20.00;12.90;;;;;;;24.01;72.65;96544.64;109108;1266;22541;-86
2023/06/23 08:49:46;;;;;;;15.60;12.20;;;;;;;23.98;72.62;96537.73;109075;1266;93871;-86
2023/06/23 08:52:29;;;;;;;16.80;11.90;;;;;;;23.99;72.98;96540.45;109108;1269;22541;-86
2023/06/23 08:55:02;;;;;;;18.10;13.30;;;;;;;24.09;73.34;96544.14;109124;1272;22516;-86
2023/06/23 08:58:00;;;;;;;17.60;12.80;;;;;;;24.15;73.15;96552.27;109075;1272;25502;-85
2023/06/23 09:00:34;;;;;;;15.90;12.10;;;;;;;24.25;73.16;96555.65;109119;1265;23790;-86
2023/06/23 09:03:06;;;;;;;18.20;12.50;;;;;;;24.33;73.05;96553.59;109147;1272;22545;-86
2023/06/23 09:05:51;;;;;;;15.70;13.00;;;;;;;24.38;72.97;96552.89;109121;1269;25932;-86
2023/06/23 09:08:37;;;;;;;18.20;12.60;;;;;;;24.47;73.10;96545.88;105020;1272;5245047;-88
2023/06/23 09:22:14;;;;;;;18.40;13.10;;;;;;;24.79;72.97;96531.59;108644;1266;25422;-87
2023/06/23 09:28:27;;;;;;;17.70;13.30;;;;;;;25.00;72.88;96531.94;106211;1281;2430400;-86
2023/06/23 09:31:11;;;;;;;16.10;12.80;;;;;;;25.05;72.86;96527.90;108651;1273;22549;-86
2023/06/23 09:33:54;;;;;;;17.60;12.80;;;;;;;25.15;73.25;96521.55;108959;1273;25409;-87
2023/06/23 09:36:33;;;;;;;17.00;12.70;;;;;;;25.29;73.13;96522.05;109123;1269;22648;-85
2023/06/23 09:39:15;;;;;;;18.30;13.20;;;;;;;25.37;72.82;96519.04;109050;1269;62418;-85
2023/06/23 09:41:54;;;;;;;14.70;13.10;;;;;;;25.49;73.18;96520.11;109242;1266;23895;-85
2023/06/23 09:44:48;;;;;;;20.50;13.30;;;;;;;25.65;73.36;96519.30;109183;1267;22501;-84
2023/06/23 09:47:22;;;;;;;18.40;13.00;;;;;;;25.80;73.43;96518.17;109103;1266;22569;-83
2023/06/23 09:49:57;;;;;;;16.40;13.60;;;;;;;25.93;73.35;96512.11;109042;1270;94600;-86
2023/06/23 09:52:30;;;;;;;16.20;12.50;;;;;;;26.03;73.00;96507.04;109133;1272;23921;-85
2023/06/23 09:55:06;;;;;;;16.90;13.10;;;;;;;26.11;72.83;96505.98;109114;1250;22560;-85
2023/06/23 09:57:38;;;;;;;17.30;13.50;;;;;;;26.19;72.84;96507.11;109105;1269;25246;-84
2023/06/23 10:00:29;;;;;;;18.00;13.00;;;;;;;26.30;72.78;96506.77;109074;1269;49743;-86
2023/06/23 10:03:09;;;;;;;19.20;13.50;;;;;;;26.40;72.62;96507.99;109127;1272;24341;-86
2023/06/23 10:05:48;;;;;;;17.70;13.10;;;;;;;26.46;72.50;96509.24;109088;1267;22651;-85
2023/06/23 10:08:22;;;;;;;15.20;12.70;;;;;;;26.49;72.62;96504.52;109078;1269;64967;-84
2023/06/23 10:10:56;;;;;;;16.60;13.40;;;;;;;26.61;72.83;96492.35;109120;1269;22519;-84
2023/06/23 10:13:30;;;;;;;17.60;13.60;;;;;;;26.69;73.00;96493.69;109152;1267;22527;-88
2023/06/23 10:16:06;;;;;;;16.50;12.70;;;;;;;26.82;73.17;96498.21;109081;1269;23781;-87
2023/06/23 10:18:38;;;;;;;17.80;13.40;;;;;;;26.90;73.09;96501.44;109057;1267;55256;-87
2023/06/23 10:21:09;;;;;;;16.00;12.60;;;;;;;26.97;73.27;96500.48;109051;1272;25158;-87
2023/06/23 10:23:42;;;;;;;18.80;13.70;;;;;;;27.06;73.24;96506.67;109134;1272;22520;-87
2023/06/23 10:26:17;;;;;;;16.30;13.60;;;;;;;27.08;72.62;96510.33;109110;1270;22547;-86
2023/06/23 10:28:54;;;;;;;15.20;12.80;;;;;;;27.10;72.95;96502.87;109047;1269;56388;-86
2023/06/23 10:31:30;;;;;;;17.20;13.40;;;;;;;27.16;73.30;96478.69;109121;1269;24400;-84
2023/06/23 10:34:05;;;;;;;17.20;13.10;;;;;;;27.17;72.92;96470.98;109112;1270;22537;-87
2023/06/23 10:36:42;;;;;;;22.20;13.80;;;;;;;27.11;72.70;96479.92;109141;1272;22500;-86
2023/06/23 10:39:14;;;;;;;17.20;14.50;;;;;;;27.01;72.55;96484.27;109117;1267;56902;-84
2023/06/23 10:41:51;;;;;;;23.90;14.50;;;;;;;26.88;72.65;96487.34;109359;1269;22611;-84
2023/06/23 10:44:25;;;;;;;22.30;15.80;;;;;;;26.83;74.04;96498.84;109367;1272;22522;-83
2023/06/23 13:59:28;;;;;;;20.90;17.00;;;;;;;23.05;93.15;96570.20;108836;1272;961363;-88
2023/06/23 14:01:57;;;;;;;19.70;17.50;;;;;;;23.02;93.12;96562.83;111185;1253;25251;-85
2023/06/23 14:04:26;;;;;;;19.60;17.70;;;;;;;23.01;93.11;96560.17;111194;1254;22502;-84
2023/06/23 14:06:55;;;;;;;21.70;19.10;;;;;;;22.96;93.09;96563.10;111344;1251;22645;-82
2023/06/23 14:09:24;;;;;;;21.80;18.70;;;;;;;22.89;93.15;96568.98;111308;1236;22508;-83
2023/06/23 14:11:52;;;;;;;22.10;19.30;;;;;;;22.82;93.38;96566.77;111348;1251;22494;-81
2023/06/23 14:14:23;;;;;;;22.30;19.70;;;;;;;22.77;93.65;96561.16;111392;1237;22552;-80
2023/06/23 14:16:51;;;;;;;21.50;19.20;;;;;;;22.73;93.76;96552.77;111672;1251;22559;-83
2023/06/23 14:19:20;;;;;;;25.40;19.90;;;;;;;22.70;93.73;96555.55;111980;1247;28330;-80
2023/06/23 14:21:49;;;;;;;22.90;19.40;;;;;;;22.66;93.66;96558.81;112239;1245;27475;-80
2023/06/23 14:24:18;;;;;;;21.90;19.80;;;;;;;22.62;93.78;96558.73;112104;1245;22641;-82
2023/06/23 14:26:47;;;;;;;23.30;20.50;;;;;;;22.60;94.03;96554.45;112128;1245;23063;-82
2023/06/23 14:29:16;;;;;;;23.40;21.00;;;;;;;22.60;94.21;96552.89;112042;1230;56399;-82
2023/06/23 14:31:44;;;;;;;24.30;21.70;;;;;;;22.59;94.42;96558.83;111983;1245;22543;-82
2023/06/23 14:34:13;;;;;;;24.70;22.10;;;;;;;22.60;94.68;96573.52;112024;1245;23209;-79
2023/06/23 14:36:41;;;;;;;24.20;21.70;;;;;;;22.64;94.96;96584.77;112002;1245;22532;-80
2023/06/23 14:39:10;;;;;;;24.80;22.20;;;;;;;22.66;95.07;96586.37;111950;1245;58072;-80
2023/06/23 14:41:39;;;;;;;23.50;21.10;;;;;;;22.66;95.09;96586.66;112013;1245;24496;-80
2023/06/23 14:44:08;;;;;;;23.10;20.70;;;;;;;22.66;95.17;96578.27;111980;1245;22559;-80
2023/06/23 14:46:37;;;;;;;25.10;22.50;;;;;;;22.67;95.31;96567.02;112374;1242;22474;-80
2023/06/23 14:49:08;;;;;;;24.30;21.00;;;;;;;22.69;95.42;96559.17;112032;1244;48182;-80
2023/06/23 14:51:39;;;;;;;24.30;21.80;;;;;;;22.70;95.71;96554.56;112154;1244;22508;-80
2023/06/23 14:54:07;;;;;;;22.00;19.80;;;;;;;22.71;96.03;96549.02;112158;1244;22506;-80
2023/06/23 14:56:37;;;;;;;22.60;20.20;;;;;;;22.71;95.98;96548.17;112130;1244;22532;-80
2023/06/23 14:59:05;;;;;;;25.60;21.00;;;;;;;22.71;96.03;96558.36;112131;1244;58302;-80
2023/06/23 15:01:34;;;;;;;23.80;21.50;;;;;;;22.70;95.99;96570.31;112161;1244;22503;-80
2023/06/23 15:04:02;;;;;;;25.80;23.20;;;;;;;22.68;96.06;96588.81;112175;1237;24255;-80
2023/06/23 15:06:31;;;;;;;26.50;23.70;;;;;;;22.65;96.16;96609.21;112075;1244;22458;-80
2023/06/23 15:08:59;;;;;;;28.10;24.80;;;;;;;22.62;96.29;96611.23;112137;1244;43899;-83
2023/06/23 15:11:28;;;;;;;25.00;22.10;;;;;;;22.58;96.32;96607.52;112157;1243;23172;-82
2023/06/23 15:13:56;;;;;;;25.30;22.40;;;;;;;22.56;96.57;96607.48;112177;1240;22543;-83
2023/06/23 15:16:26;;;;;;;23.70;21.40;;;;;;;22.52;96.62;96607.41;112163;1244;25222;-80
2023/06/23 15:18:55;;;;;;;25.10;22.60;;;;;;;22.52;96.90;96608.40;112112;1243;46140;-82
2023/06/23 15:21:24;;;;;;;25.70;23.10;;;;;;;22.53;97.04;96603.55;112155;1243;22493;-82
2023/06/23 15:23:55;;;;;;;25.00;22.60;;;;;;;22.51;97.16;96591.70;112159;1244;22525;-82
2023/06/23 15:26:23;;;;;;;24.50;21.80;;;;;;;22.50;97.25;96594.54;112184;1244;23267;-83
2023/06/23 15:28:51;;;;;;;24.40;22.00;;;;;;;22.46;97.06;96602.95;112185;1244;46032;-83
2023/06/23 15:31:20;;;;;;;26.00;23.20;;;;;;;22.42;97.12;96612.21;112190;1240;22512;-82